Terminal Aerodrome Forecast
Issued by NWS

Home | Current Version | Previous Version | Text Only | Print | Product List | Glossary On
Versions: 1 2 3 4 5 6 7 8 9 10 11 12 13 14 15
159
FTUS42 KGSP 240901 AAA
TAFGMU
TAF AMD
KGMU 240901Z 2409/2506 04014G22KT P6SM -SHRA SCT007 OVC012
      TEMPO 2409/2412 4SM SHRA BR OVC007
     FM241200 04018G26KT 3SM SHRA BR OVC007
     FM241600 04015G25KT 3SM SHRA BR OVC007
     FM242000 04015G25KT 3SM -SHRA OVC007
     FM250400 03012G22KT 4SM -SHRA BR OVC007=

USA.gov is the U.S. government's official web portal to all federal, state and local government web resources and services.